createdAt,value
2018-08-22T00:00:54.064Z,84.93
2018-08-22T00:03:22.613Z,84.49
2018-08-22T00:05:51.123Z,84.47
2018-08-22T00:08:24.633Z,86.11
2018-08-22T00:10:53.177Z,86.09
2018-08-22T00:13:21.676Z,87.84
2018-08-22T00:15:50.208Z,87.97
2018-08-22T00:18:18.732Z,86.69
2018-08-22T00:20:47.268Z,84.80
2018-08-22T00:23:15.778Z,86.58
2018-08-22T00:25:44.396Z,87.31
2018-08-22T00:28:12.897Z,86.63
2018-08-22T00:30:41.419Z,86.27
2018-08-22T00:33:09.940Z,85.32
2018-08-22T00:35:38.473Z,85.17
2018-08-22T00:38:06.984Z,85.86
2018-08-22T00:40:35.516Z,87.84
2018-08-22T00:43:04.192Z,88.76
2018-08-22T00:45:32.716Z,87.70
2018-08-22T00:48:01.210Z,86.61
2018-08-22T00:50:29.732Z,88.26
2018-08-22T00:52:58.251Z,90.44
2018-08-22T00:55:26.817Z,89.38
2018-08-22T00:57:55.322Z,89.30
2018-08-22T01:00:23.849Z,86.93
2018-08-22T01:02:52.385Z,87.40
2018-08-22T01:05:21.712Z,88.43
2018-08-22T01:07:50.200Z,89.56
2018-08-22T01:10:19.332Z,89.07
2018-08-22T01:12:47.900Z,91.72
2018-08-22T01:15:16.636Z,90.97
2018-08-22T01:17:45.138Z,90.48
2018-08-22T01:20:20.312Z,89.43
2018-08-22T01:22:48.812Z,88.76
2018-08-22T01:25:17.340Z,89.01
2018-08-22T01:27:46.287Z,90.51
2018-08-22T01:30:14.820Z,90.62
2018-08-22T01:32:43.329Z,91.38
2018-08-22T01:35:12.192Z,90.97
2018-08-22T01:37:40.696Z,90.83
2018-08-22T01:40:09.197Z,88.99
2018-08-22T01:42:37.724Z,87.58
2018-08-22T01:45:06.339Z,86.65
2018-08-22T01:47:34.921Z,86.09
2018-08-22T01:50:04.537Z,88.32
2018-08-22T01:52:33.095Z,87.16
2018-08-22T01:55:01.644Z,88.21
2018-08-22T01:57:30.380Z,89.19
2018-08-22T01:59:58.900Z,88.10
2018-08-22T02:02:27.448Z,89.42
2018-08-22T02:04:55.984Z,91.65
2018-08-22T02:07:24.536Z,91.99
2018-08-22T02:09:53.045Z,92.32
2018-08-22T02:12:22.444Z,91.59
2018-08-22T02:14:50.960Z,90.29
2018-08-22T02:17:19.507Z,90.50
2018-08-22T02:19:48.020Z,91.66
2018-08-22T02:22:16.578Z,92.98
2018-08-22T02:24:45.114Z,90.71
2018-08-22T02:27:13.669Z,91.10
2018-08-22T02:29:42.188Z,90.43
2018-08-22T02:32:10.716Z,92.24
2018-08-22T02:34:39.228Z,93.73
2018-08-22T02:37:07.783Z,92.35
2018-08-22T02:39:36.304Z,90.98
2018-08-22T02:42:05.096Z,92.59
2018-08-22T02:44:34.676Z,93.34
2018-08-22T02:47:03.224Z,93.67
2018-08-22T02:49:31.741Z,92.86
2018-08-22T02:52:00.294Z,92.45
2018-08-22T02:54:28.865Z,92.31
2018-08-22T02:56:57.425Z,92.37
2018-08-22T02:59:25.961Z,92.40
2018-08-22T03:01:54.572Z,90.80
2018-08-22T03:04:23.101Z,92.22
2018-08-22T03:06:51.680Z,93.69
2018-08-22T03:09:20.209Z,94.06
2018-08-22T03:11:48.757Z,92.73
2018-08-22T03:14:17.324Z,90.57
2018-08-22T03:16:45.868Z,89.54
2018-08-22T03:19:14.454Z,92.65
2018-08-22T03:21:42.984Z,92.88
2018-08-22T03:24:11.935Z,94.79
2018-08-22T03:26:40.505Z,92.60
2018-08-22T03:29:09.077Z,89.35
2018-08-22T03:31:37.872Z,89.87
2018-08-22T03:34:06.533Z,91.83
2018-08-22T03:36:35.286Z,91.28
2018-08-22T03:39:04.756Z,91.19
2018-08-22T03:41:33.294Z,92.84
2018-08-22T03:44:01.852Z,90.05
2018-08-22T03:46:30.389Z,90.39
2018-08-22T03:48:58.954Z,88.05
2018-08-22T03:51:27.484Z,91.89
2018-08-22T03:53:56.180Z,92.39
2018-08-22T03:56:24.728Z,89.47
2018-08-22T03:58:53.325Z,90.56
2018-08-22T04:01:21.837Z,89.65
2018-08-22T04:03:50.466Z,90.19
2018-08-22T04:06:18.994Z,90.02
2018-08-22T04:08:47.548Z,89.42
2018-08-22T04:11:16.069Z,90.89
2018-08-22T04:13:51.400Z,90.85
2018-08-22T04:16:19.915Z,90.95
2018-08-22T04:18:48.726Z,90.20
2018-08-22T04:21:17.394Z,89.87
2018-08-22T04:23:45.944Z,89.90
2018-08-22T04:26:14.448Z,90.13
2018-08-22T04:28:43.007Z,89.99
2018-08-22T04:31:11.604Z,88.87
2018-08-22T04:33:40.157Z,93.46
2018-08-22T04:36:08.701Z,92.61
2018-08-22T04:38:37.258Z,91.43
2018-08-22T04:41:05.833Z,89.35
2018-08-22T04:43:34.404Z,88.40
2018-08-22T04:46:03.929Z,89.28
2018-08-22T04:48:32.453Z,90.88
2018-08-22T04:51:01.291Z,89.04
2018-08-22T04:53:29.841Z,89.00
2018-08-22T04:55:58.414Z,89.46
2018-08-22T04:58:26.931Z,90.50
2018-08-22T05:00:55.517Z,91.02
2018-08-22T05:03:24.292Z,91.00
2018-08-22T05:05:52.858Z,89.46
2018-08-22T05:08:22.382Z,90.21
2018-08-22T05:10:50.946Z,89.73
2018-08-22T05:13:19.497Z,87.87
2018-08-22T05:15:48.066Z,88.31
2018-08-22T05:18:16.592Z,87.88
2018-08-22T05:20:45.145Z,89.02
2018-08-22T05:23:13.944Z,90.17
2018-08-22T05:25:42.613Z,90.67
2018-08-22T05:28:11.439Z,90.05
2018-08-22T05:30:40.110Z,88.42
2018-08-22T05:33:09.090Z,88.24
2018-08-22T05:35:37.684Z,87.39
2018-08-22T05:38:06.480Z,87.24
2018-08-22T05:40:35.738Z,87.01
2018-08-22T05:43:04.285Z,86.43
2018-08-22T05:45:32.853Z,86.97
2018-08-22T05:48:01.384Z,86.34
2018-08-22T05:50:29.956Z,86.00
2018-08-22T05:52:58.480Z,85.74
2018-08-22T05:55:27.089Z,85.41
2018-08-22T05:57:55.612Z,84.94
2018-08-22T06:00:24.161Z,84.88
2018-08-22T06:02:52.687Z,85.34
2018-08-22T06:05:21.578Z,85.49
2018-08-22T06:07:50.493Z,85.16
2018-08-22T06:10:19.033Z,84.37
2018-08-22T06:12:47.591Z,83.85
2018-08-22T06:15:16.129Z,84.28
2018-08-22T06:17:44.723Z,83.95
2018-08-22T06:20:13.288Z,83.76
2018-08-22T06:22:41.824Z,83.22
2018-08-22T06:25:10.341Z,82.84
2018-08-22T06:27:38.896Z,82.40
2018-08-22T06:30:09.128Z,82.58
2018-08-22T06:32:37.701Z,82.22
2018-08-22T06:35:06.341Z,81.97
2018-08-22T06:37:35.946Z,81.48
2018-08-22T06:40:05.228Z,82.31
2018-08-22T06:42:33.812Z,81.21
2018-08-22T06:45:02.416Z,80.94
2018-08-22T06:47:30.993Z,80.92
2018-08-22T06:49:59.512Z,80.61
2018-08-22T06:52:28.069Z,80.51
2018-08-22T06:54:56.636Z,80.10
2018-08-22T06:57:25.249Z,80.19
2018-08-22T06:59:53.791Z,80.32
2018-08-22T07:02:22.431Z,80.12
2018-08-22T07:04:50.936Z,79.10
2018-08-22T07:07:19.513Z,78.43
2018-08-22T07:09:48.052Z,77.61
2018-08-22T07:12:16.622Z,77.32
2018-08-22T07:14:45.169Z,76.21
2018-08-22T07:17:13.753Z,75.37
2018-08-22T07:19:42.291Z,75.84
2018-08-22T07:22:10.912Z,74.19
2018-08-22T07:24:39.456Z,73.70
2018-08-22T07:27:08.056Z,72.79
2018-08-22T07:29:36.645Z,72.43
2018-08-22T07:32:05.215Z,71.72
2018-08-22T07:34:33.748Z,71.38
2018-08-22T07:37:02.308Z,71.45
2018-08-22T07:39:30.879Z,70.66
2018-08-22T07:41:59.514Z,70.64
2018-08-22T07:44:28.092Z,70.82
2018-08-22T07:46:56.629Z,70.17
2018-08-22T07:49:25.216Z,70.47
2018-08-22T07:51:53.813Z,70.22
2018-08-22T07:54:28.644Z,69.24
2018-08-22T07:56:57.259Z,70.13
2018-08-22T07:59:25.860Z,70.37
2018-08-22T08:01:54.491Z,69.17
2018-08-22T08:04:23.021Z,69.28
2018-08-22T08:06:51.564Z,68.11
2018-08-22T08:09:20.129Z,68.23
2018-08-22T08:11:48.685Z,67.76
2018-08-22T08:14:17.255Z,68.76
2018-08-22T08:16:45.801Z,68.60
2018-08-22T08:19:14.689Z,69.05
2018-08-22T08:21:43.237Z,68.47
2018-08-22T08:24:11.804Z,66.97
2018-08-22T08:26:40.340Z,66.40
2018-08-22T08:29:08.922Z,65.29
2018-08-22T08:31:37.888Z,66.12
2018-08-22T08:34:06.458Z,64.94
2018-08-22T08:36:35.001Z,64.69
2018-08-22T08:39:03.849Z,64.81
2018-08-22T08:41:32.467Z,65.21
2018-08-22T08:44:01.029Z,65.76
2018-08-22T08:46:33.041Z,62.65
2018-08-22T08:49:02.012Z,62.82
2018-08-22T08:51:30.664Z,62.54
2018-08-22T08:53:59.274Z,62.23
2018-08-22T08:56:27.800Z,62.69
2018-08-22T08:58:56.388Z,62.67
2018-08-22T09:01:24.921Z,61.21
2018-08-22T09:03:53.528Z,60.30
2018-08-22T09:06:22.047Z,59.42
2018-08-22T09:08:50.642Z,58.49
2018-08-22T09:11:19.178Z,57.88
2018-08-22T09:13:53.037Z,58.52
2018-08-22T09:16:21.932Z,58.55
2018-08-22T09:18:50.507Z,58.63
2018-08-22T09:21:19.080Z,59.40
2018-08-22T09:23:47.616Z,58.35
2018-08-22T09:26:16.177Z,59.79
2018-08-22T09:28:45.560Z,58.30
2018-08-22T09:31:14.244Z,57.50
2018-08-22T09:33:42.811Z,57.79
2018-08-22T09:36:11.386Z,57.23
2018-08-22T09:38:43.522Z,54.42
2018-08-22T09:41:12.278Z,54.25
2018-08-22T09:43:40.809Z,54.82
2018-08-22T09:46:09.640Z,54.19
2018-08-22T09:48:38.217Z,54.21
2018-08-22T09:51:07.012Z,53.01
2018-08-22T09:53:35.584Z,53.95
2018-08-22T09:56:04.239Z,52.52
2018-08-22T09:58:32.944Z,53.10
2018-08-22T10:01:06.905Z,52.83
2018-08-22T10:03:53.215Z,52.97
2018-08-22T10:06:30.009Z,49.69
2018-08-22T10:09:02.360Z,50.93
2018-08-22T10:11:30.932Z,51.56
2018-08-22T10:14:03.465Z,49.79
2018-08-22T10:16:32.060Z,48.31
2018-08-22T10:19:00.637Z,46.80
2018-08-22T10:21:29.269Z,48.32
2018-08-22T10:23:57.804Z,46.63
2018-08-22T10:26:26.389Z,46.88
2018-08-22T10:28:55.176Z,47.60
2018-08-22T10:31:24.510Z,47.84
2018-08-22T10:33:53.205Z,48.99
2018-08-22T10:36:21.784Z,50.08
2018-08-22T10:38:50.366Z,47.86
2018-08-22T10:41:18.953Z,46.07
2018-08-22T10:43:47.568Z,45.99
2018-08-22T10:46:16.148Z,43.32
2018-08-22T10:48:44.688Z,44.00
2018-08-22T10:51:13.267Z,43.80
2018-08-22T10:53:41.849Z,44.36
2018-08-22T10:56:10.437Z,44.59
2018-08-22T10:58:39.007Z,43.85
2018-08-22T11:01:07.553Z,43.69
2018-08-22T11:03:36.106Z,44.90
2018-08-22T11:06:04.661Z,43.29
2018-08-22T11:08:33.237Z,44.40
2018-08-22T11:11:01.776Z,43.20
2018-08-22T11:13:30.356Z,43.97
2018-08-22T11:15:58.994Z,43.69
2018-08-22T11:18:27.586Z,43.67
2018-08-22T11:20:55.516Z,43.99
2018-08-22T11:23:35.261Z,44.50
2018-08-22T11:26:15.037Z,42.85
2018-08-22T11:28:54.809Z,41.17
2018-08-22T11:31:34.521Z,41.82
2018-08-22T11:34:14.389Z,42.51
2018-08-22T11:36:49.301Z,43.13
2018-08-22T11:39:17.870Z,43.36
2018-08-22T11:41:46.429Z,41.04
2018-08-22T11:44:15.068Z,41.50
